Time;durP1;ratioP1;P1;durP2;ratioP2;P2;SDS_P1;SDS_P2;PMS_P1;PMS_P2;Temp;Humidity;BMP_temperature;BMP_pressure;BME280_temperature;BME280_humidity;BME280_pressure;Samples;Min_cycle;Max_cycle;Signal;HPM_P1;HPM_P2
2021/01/22 00:02:11;;;;;;;0.95;0.60;;;;;;;2.97;95.82;98258.56;5085423;28;20063;-61
2021/01/22 00:04:37;;;;;;;0.80;0.68;;;;;;;2.87;96.01;98260.47;5088388;28;20109;-62
2021/01/22 00:07:03;;;;;;;0.57;0.50;;;;;;;2.88;96.15;98260.31;5088766;28;20435;-62
2021/01/22 00:09:29;;;;;;;0.90;0.55;;;;;;;2.89;96.77;98266.47;5086780;28;20048;-62
2021/01/22 00:11:54;;;;;;;0.55;0.50;;;;;;;2.92;96.81;98268.81;5087512;28;20511;-62
2021/01/22 00:14:20;;;;;;;0.52;0.47;;;;;;;2.86;96.41;98272.91;5085325;28;20051;-62
2021/01/22 00:16:46;;;;;;;0.85;0.73;;;;;;;2.88;96.32;98275.41;5087317;28;20050;-61
2021/01/22 00:19:13;;;;;;;0.70;0.70;;;;;;;2.88;96.63;98283.41;5087273;28;20052;-61
2021/01/22 00:21:39;;;;;;;1.63;0.85;;;;;;;2.84;97.21;98290.81;5082686;28;20082;-62
2021/01/22 00:24:06;;;;;;;2.88;1.13;;;;;;;2.85;96.92;98281.03;5087144;28;20047;-62
2021/01/22 00:26:32;;;;;;;2.50;1.52;;;;;;;2.85;96.91;98273.91;5086564;28;20048;-61
2021/01/22 00:28:58;;;;;;;3.08;1.90;;;;;;;2.89;96.78;98282.41;5085723;28;20055;-61
2021/01/22 00:31:24;;;;;;;3.65;2.20;;;;;;;2.95;97.59;98293.25;5082815;28;20048;-61
2021/01/22 00:33:50;;;;;;;6.57;2.90;;;;;;;3.01;97.36;98291.00;5086990;28;20508;-62
2021/01/22 00:36:17;;;;;;;3.45;2.63;;;;;;;3.11;96.90;98307.72;5088697;28;20131;-61
2021/01/22 00:38:43;;;;;;;5.93;3.58;;;;;;;3.03;97.15;98305.78;5086162;28;20051;-62
2021/01/22 00:41:09;;;;;;;4.55;3.42;;;;;;;2.97;97.06;98298.41;5077004;28;20139;-62
2021/01/22 00:43:35;;;;;;;4.75;3.55;;;;;;;2.93;97.34;98307.66;5085398;28;20040;-62
2021/01/22 00:46:01;;;;;;;6.43;4.28;;;;;;;2.95;97.95;98313.69;5086295;28;20085;-62
2021/01/22 00:48:26;;;;;;;7.50;4.20;;;;;;;2.97;97.74;98325.84;5086418;28;20105;-62
2021/01/22 00:50:52;;;;;;;7.30;4.53;;;;;;;3.01;97.61;98339.66;5088655;28;20056;-62
2021/01/22 00:53:19;;;;;;;6.97;4.40;;;;;;;2.98;97.90;98335.47;5086845;28;20055;-62
2021/01/22 00:55:45;;;;;;;8.30;5.05;;;;;;;3.02;98.31;98341.34;5087212;28;20055;-62
2021/01/22 00:58:13;;;;;;;8.07;4.80;;;;;;;3.03;97.81;98356.28;5087680;28;20052;-62
2021/01/22 01:00:39;;;;;;;9.20;5.28;;;;;;;3.04;98.45;98359.78;5088304;28;20044;-62
2021/01/22 01:03:05;;;;;;;10.05;5.07;;;;;;;3.06;98.09;98361.31;5086984;28;20123;-62
2021/01/22 01:05:31;;;;;;;9.30;5.10;;;;;;;3.05;97.75;98364.09;5087885;28;20106;-61
2021/01/22 01:07:57;;;;;;;8.50;5.35;;;;;;;3.06;98.40;98374.59;5087615;28;20043;-61
2021/01/22 01:10:24;;;;;;;9.07;4.95;;;;;;;3.05;97.89;98367.59;5088368;28;20386;-61
2021/01/22 01:12:50;;;;;;;7.65;4.15;;;;;;;3.08;97.63;98369.97;5088585;28;20580;-61
2021/01/22 01:15:16;;;;;;;6.80;4.32;;;;;;;3.02;98.47;98367.91;5077068;28;20057;-62
2021/01/22 01:17:42;;;;;;;6.40;4.20;;;;;;;2.99;98.03;98373.53;5088815;28;20423;-62
2021/01/22 01:20:10;;;;;;;7.20;4.45;;;;;;;3.03;98.29;98368.72;5084684;28;20117;-62
2021/01/22 01:22:36;;;;;;;7.40;4.28;;;;;;;3.01;97.61;98371.53;5088657;28;20048;-61
2021/01/22 01:25:03;;;;;;;6.43;3.58;;;;;;;2.99;97.55;98381.50;5086813;28;20048;-62
2021/01/22 01:27:29;;;;;;;6.63;3.58;;;;;;;3.00;97.50;98380.50;5086843;28;20539;-62
2021/01/22 01:29:55;;;;;;;5.07;2.88;;;;;;;2.98;97.57;98390.44;5085423;28;20058;-62
2021/01/22 01:32:21;;;;;;;5.10;3.08;;;;;;;3.03;98.00;98404.09;5086705;28;20052;-62
2021/01/22 01:34:47;;;;;;;4.38;2.78;;;;;;;3.08;97.81;98414.31;5087366;28;20393;-62
2021/01/22 01:37:13;;;;;;;5.70;2.78;;;;;;;3.07;98.00;98428.56;5087940;28;20044;-62
2021/01/22 01:39:39;;;;;;;5.30;2.42;;;;;;;3.02;97.91;98430.81;5088328;28;20152;-62
2021/01/22 01:42:05;;;;;;;5.53;3.15;;;;;;;3.04;97.86;98436.84;5085560;28;20123;-63
2021/01/22 01:44:32;;;;;;;6.05;2.40;;;;;;;3.08;97.67;98439.06;5087522;28;20074;-63
2021/01/22 01:46:58;;;;;;;4.60;2.40;;;;;;;3.05;97.42;98435.84;5088431;28;20058;-62
2021/01/22 01:49:25;;;;;;;6.28;2.78;;;;;;;3.05;97.89;98431.38;5086499;28;20044;-62
2021/01/22 01:51:51;;;;;;;3.78;2.20;;;;;;;3.05;97.60;98446.47;5086023;28;20047;-63
2021/01/22 01:54:18;;;;;;;4.05;2.20;;;;;;;3.08;97.12;98455.00;5085294;28;20082;-62
2021/01/22 01:56:45;;;;;;;6.63;2.17;;;;;;;3.08;97.57;98467.47;5087454;28;20044;-63
2021/01/22 01:59:13;;;;;;;3.10;2.00;;;;;;;3.08;97.35;98467.47;5086925;28;20048;-62
2021/01/22 02:01:40;;;;;;;5.18;2.00;;;;;;;3.05;97.75;98471.25;5088522;28;20111;-62
2021/01/22 02:04:06;;;;;;;4.95;2.30;;;;;;;3.07;97.59;98474.59;5088315;28;20126;-62
2021/01/22 02:06:32;;;;;;;4.55;2.63;;;;;;;3.09;97.38;98469.97;5090873;28;20047;-62
2021/01/22 02:09:00;;;;;;;6.18;3.00;;;;;;;3.11;97.50;98467.16;5091200;28;20051;-62
2021/01/22 02:11:27;;;;;;;6.38;3.10;;;;;;;3.09;97.18;98469.97;5089762;28;20040;-63
2021/01/22 02:13:54;;;;;;;5.97;3.25;;;;;;;3.09;97.78;98479.75;5090520;28;20055;-63
2021/01/22 02:16:21;;;;;;;5.53;3.58;;;;;;;3.07;98.04;98477.25;5090179;28;20395;-62
2021/01/22 02:18:49;;;;;;;7.55;3.75;;;;;;;3.05;97.96;98479.22;5091010;28;20048;-63
2021/01/22 02:21:23;;;;;;;6.47;4.25;;;;;;;3.05;97.80;98473.91;5090265;28;20527;-62
2021/01/22 02:23:51;;;;;;;8.90;4.30;;;;;;;3.05;97.51;98476.56;5090899;28;20059;-63
2021/01/22 02:26:34;;;;;;;7.95;4.68;;;;;;;3.07;97.57;98482.56;5090789;28;20454;-63
2021/01/22 02:29:03;;;;;;;7.95;4.93;;;;;;;3.10;98.13;98482.25;5091422;28;20040;-63
2021/01/22 02:31:30;;;;;;;9.48;4.90;;;;;;;3.07;97.60;98489.72;5090473;28;20047;-63
2021/01/22 02:34:02;;;;;;;8.00;4.70;;;;;;;3.07;98.16;98495.84;5089644;28;20049;-63
2021/01/22 02:36:31;;;;;;;10.95;5.25;;;;;;;3.02;98.36;98503.44;5090013;28;20056;-62
2021/01/22 02:39:00;;;;;;;9.90;5.07;;;;;;;3.03;98.37;98497.13;5091468;28;20409;-63
2021/01/22 02:41:27;;;;;;;8.68;4.82;;;;;;;3.07;98.65;98492.38;5089786;28;20048;-63
2021/01/22 02:43:54;;;;;;;10.65;5.95;;;;;;;3.01;98.41;98491.13;5089330;28;20044;-63
2021/01/22 02:46:22;;;;;;;8.55;5.55;;;;;;;3.00;98.79;98496.59;5090939;28;20454;-63
2021/01/22 02:48:48;;;;;;;12.15;7.05;;;;;;;2.98;98.76;98499.38;5077549;28;20037;-63
2021/01/22 02:51:15;;;;;;;11.77;6.90;;;;;;;2.98;98.71;98510.00;5070067;28;20456;-62
2021/01/22 02:53:41;;;;;;;11.50;6.72;;;;;;;2.99;98.27;98517.00;5069319;28;20051;-64
2021/01/22 02:59:06;;;;;;;9.63;6.55;;;;;;;3.00;99.08;98528.47;5032362;22;20040;-64
2021/01/22 03:01:39;;;;;;;11.95;6.85;;;;;;;2.99;98.64;98525.00;5099346;28;20481;-63
2021/01/22 03:04:09;;;;;;;13.60;7.65;;;;;;;2.98;98.48;98523.31;5098731;28;20420;-63
2021/01/22 03:06:43;;;;;;;13.27;7.18;;;;;;;2.97;98.99;98524.28;5100553;28;20055;-63
2021/01/22 03:09:20;;;;;;;15.63;7.97;;;;;;;2.93;98.54;98529.06;5100093;28;20513;-63
2021/01/22 03:11:50;;;;;;;17.08;7.28;;;;;;;2.88;98.53;98530.47;5100821;28;20051;-63
2021/01/22 03:14:18;;;;;;;18.75;9.77;;;;;;;2.83;99.24;98535.34;5068112;28;20450;-63
2021/01/22 03:16:44;;;;;;;20.55;8.70;;;;;;;2.80;98.51;98534.69;5076058;28;20046;-63
2021/01/22 03:19:10;;;;;;;19.55;10.27;;;;;;;2.76;99.15;98540.44;5097574;28;20094;-61
2021/01/22 03:21:36;;;;;;;20.63;10.93;;;;;;;2.74;98.75;98543.22;5100919;28;20404;-63
2021/01/22 03:24:03;;;;;;;21.73;12.52;;;;;;;2.75;98.63;98546.72;5099136;28;20067;-63
2021/01/22 03:26:29;;;;;;;22.73;12.50;;;;;;;2.72;99.04;98550.47;5099041;28;20053;-62
2021/01/22 03:28:55;;;;;;;27.88;13.70;;;;;;;2.71;99.00;98556.81;5098891;28;20048;-63
2021/01/22 03:31:21;;;;;;;30.00;14.50;;;;;;;2.72;98.43;98558.44;5100146;28;20051;-62
2021/01/22 03:33:48;;;;;;;25.75;14.68;;;;;;;2.66;98.74;98563.50;5097113;28;20101;-63
2021/01/22 03:36:14;;;;;;;23.08;12.05;;;;;;;2.68;99.23;98564.19;5098946;28;20048;-62
2021/01/22 03:38:41;;;;;;;27.00;14.93;;;;;;;2.63;99.37;98580.56;5098629;28;20056;-63
2021/01/22 03:41:07;;;;;;;23.60;12.35;;;;;;;2.67;99.24;98579.31;5098905;28;20040;-64
2021/01/22 03:43:33;;;;;;;22.55;12.85;;;;;;;2.65;98.54;98580.41;5100377;28;20400;-63
2021/01/22 03:45:59;;;;;;;21.45;12.32;;;;;;;2.63;98.57;98588.53;5098983;28;20079;-64
2021/01/22 03:48:25;;;;;;;20.48;12.27;;;;;;;2.60;98.64;98584.34;5098265;28;20492;-63
2021/01/22 03:50:52;;;;;;;24.73;12.07;;;;;;;2.55;98.85;98594.56;5100599;28;20531;-62
2021/01/22 03:53:18;;;;;;;22.65;11.55;;;;;;;2.57;98.41;98597.06;5097202;28;20401;-63
2021/01/22 03:55:44;;;;;;;19.63;11.18;;;;;;;2.58;98.87;98599.59;5099624;28;20047;-63
2021/01/22 03:58:10;;;;;;;16.17;10.23;;;;;;;2.62;98.54;98605.44;5099601;28;20055;-63
2021/01/22 04:00:36;;;;;;;18.27;9.68;;;;;;;2.70;98.89;98613.56;5098633;28;20130;-63
2021/01/22 04:03:03;;;;;;;16.60;9.00;;;;;;;2.67;99.01;98619.16;5096708;28;20568;-64
2021/01/22 04:05:30;;;;;;;19.52;8.40;;;;;;;2.64;98.14;98616.78;5095665;28;20039;-63
2021/01/22 04:07:55;;;;;;;12.48;7.45;;;;;;;2.68;98.86;98612.88;5099931;28;20474;-62
2021/01/22 04:10:22;;;;;;;9.93;6.55;;;;;;;2.63;99.07;98623.06;5095433;28;20048;-62
2021/01/22 04:12:47;;;;;;;12.75;7.63;;;;;;;2.65;99.07;98626.44;5099114;28;20044;-64
2021/01/22 04:15:13;;;;;;;11.63;6.75;;;;;;;2.70;98.54;98634.81;5095139;28;20093;-64
2021/01/22 04:17:40;;;;;;;13.27;6.78;;;;;;;2.74;99.23;98638.00;5099223;28;20289;-62
2021/01/22 04:20:07;;;;;;;12.93;6.30;;;;;;;2.76;98.29;98638.72;5097628;28;20052;-63
2021/01/22 04:22:34;;;;;;;11.15;6.25;;;;;;;2.73;99.11;98646.97;5098675;28;20044;-63
2021/01/22 04:25:00;;;;;;;10.75;5.47;;;;;;;2.65;98.12;98647.69;5094805;28;20048;-63
2021/01/22 04:27:25;;;;;;;8.18;4.85;;;;;;;2.58;98.26;98646.56;5097383;28;20050;-63
2021/01/22 04:29:51;;;;;;;7.93;4.80;;;;;;;2.57;98.81;98655.50;5093850;28;20495;-62
2021/01/22 04:32:17;;;;;;;7.95;4.13;;;;;;;2.60;98.66;98645.41;5100903;28;20051;-63
2021/01/22 04:34:43;;;;;;;6.65;4.00;;;;;;;2.58;98.72;98655.34;5096349;28;20622;-64
2021/01/22 04:37:09;;;;;;;9.60;4.22;;;;;;;2.49;98.67;98664.16;5099064;28;20047;-63
2021/01/22 04:39:36;;;;;;;8.10;4.18;;;;;;;2.47;98.35;98657.31;5097530;28;20048;-62
2021/01/22 04:42:05;;;;;;;7.05;3.42;;;;;;;2.53;98.89;98665.56;5098388;28;20060;-64
2021/01/22 04:44:31;;;;;;;6.80;2.78;;;;;;;2.52;98.29;98668.34;5094567;28;20051;-63
2021/01/22 04:46:57;;;;;;;6.38;2.70;;;;;;;2.52;98.79;98676.28;5097881;28;20044;-63
2021/01/22 04:49:24;;;;;;;7.72;3.17;;;;;;;2.54;98.52;98682.31;5098061;28;20481;-63
2021/01/22 04:51:52;;;;;;;8.30;3.55;;;;;;;2.56;98.63;98675.03;5097149;28;20052;-63
2021/01/22 04:54:23;;;;;;;6.35;2.40;;;;;;;2.56;98.68;98677.69;5094734;28;20404;-63
2021/01/22 04:56:51;;;;;;;11.30;3.03;;;;;;;2.56;98.94;98680.34;5096666;28;20048;-63
2021/01/22 04:59:22;;;;;;;9.53;2.60;;;;;;;2.49;99.21;98680.09;5097937;28;20136;-63
2021/01/22 05:01:48;;;;;;;9.25;2.63;;;;;;;2.43;98.90;98686.78;5098694;28;20180;-63
2021/01/22 05:04:14;;;;;;;6.93;2.33;;;;;;;2.37;98.87;98687.34;5097770;28;20055;-63
2021/01/22 05:06:40;;;;;;;9.90;2.60;;;;;;;2.39;98.54;98695.16;5100251;28;20101;-63
2021/01/22 05:09:06;;;;;;;5.85;2.55;;;;;;;2.36;98.71;98695.44;5092682;28;20589;-62
2021/01/22 05:11:32;;;;;;;8.68;2.28;;;;;;;2.34;98.80;98692.06;5099108;28;20075;-64
2021/01/22 05:14:00;;;;;;;7.88;2.65;;;;;;;2.25;98.37;98693.72;5097220;28;20052;-63
2021/01/22 05:16:26;;;;;;;9.60;2.60;;;;;;;2.21;98.57;98693.19;5099537;28;20048;-64
2021/01/22 05:18:52;;;;;;;7.22;2.75;;;;;;;2.20;99.07;98707.41;5097092;28;20087;-63
2021/01/22 05:21:19;;;;;;;9.50;2.85;;;;;;;2.16;99.11;98699.84;5096388;28;20051;-63
2021/01/22 05:23:45;;;;;;;11.40;3.40;;;;;;;2.12;98.98;98706.41;5097631;28;20493;-63
2021/01/22 05:26:13;;;;;;;5.90;3.08;;;;;;;2.11;99.25;98705.56;5097446;28;20519;-63
2021/01/22 05:28:40;;;;;;;5.65;3.33;;;;;;;2.11;99.24;98700.28;5096967;28;20453;-63
2021/01/22 05:31:08;;;;;;;11.30;4.55;;;;;;;2.06;99.34;98711.28;5097248;28;20039;-63
2021/01/22 05:33:34;;;;;;;10.88;4.40;;;;;;;2.03;99.27;98706.25;5096774;28;20094;-63
2021/01/22 05:36:20;;;;;;;13.60;5.53;;;;;;;2.02;100.00;98715.19;5098227;28;20400;-63
2021/01/22 05:38:46;;;;;;;10.30;5.85;;;;;;;2.06;99.09;98713.09;5097408;28;20048;-62
2021/01/22 05:41:12;;;;;;;14.48;6.25;;;;;;;2.05;99.25;98717.56;5102179;28;20485;-63
2021/01/22 05:46:13;;;;;;;10.95;6.35;;;;;;;2.08;99.49;98730.56;5033122;22;20041;-63
2021/01/22 05:48:39;;;;;;;11.70;7.07;;;;;;;2.12;99.30;98738.25;5070552;28;20725;-64
2021/01/22 05:51:05;;;;;;;17.70;8.20;;;;;;;2.18;99.35;98732.41;5071432;28;20555;-63
2021/01/22 05:53:31;;;;;;;15.50;7.78;;;;;;;2.14;99.11;98738.97;5068842;28;20425;-63
2021/01/22 05:56:08;;;;;;;15.52;9.15;;;;;;;2.13;99.84;98742.59;5068633;28;20055;-62
2021/01/22 05:58:34;;;;;;;22.67;9.70;;;;;;;2.08;99.68;98746.47;5071718;28;20040;-63
2021/01/22 06:01:08;;;;;;;17.27;9.07;;;;;;;2.06;99.32;98752.88;5070592;28;20052;-63
2021/01/22 06:03:36;;;;;;;23.75;10.82;;;;;;;2.01;100.00;98755.94;5070596;28;20546;-63
2021/01/22 06:06:03;;;;;;;22.58;10.40;;;;;;;2.01;100.00;98755.94;5068994;28;20117;-63
2021/01/22 06:08:29;;;;;;;22.20;12.13;;;;;;;1.96;100.00;98760.84;5067838;28;20048;-63
2021/01/22 06:10:55;;;;;;;23.25;10.95;;;;;;;1.94;99.85;98760.09;5069624;28;20094;-63
2021/01/22 06:13:25;;;;;;;22.67;11.98;;;;;;;1.93;99.56;98761.09;5069403;28;20045;-63
2021/01/22 06:15:54;;;;;;;20.17;11.32;;;;;;;1.93;100.00;98764.59;5069839;28;20464;-63
2021/01/22 06:18:24;;;;;;;21.17;11.55;;;;;;;1.99;100.00;98771.19;5070245;28;20049;-62
2021/01/22 06:20:52;;;;;;;;;;;;;;;1.95;99.97;98767.09;5071191;28;20125;-63
2021/01/22 06:23:20;;;;;;;25.95;12.10;;;;;;;1.91;100.00;98766.53;5069855;28;19928;-63
2021/01/22 06:25:45;;;;;;;23.85;13.40;;;;;;;1.89;99.85;98772.94;5068796;28;20047;-63
2021/01/22 06:28:11;;;;;;;23.88;12.43;;;;;;;1.84;100.00;98773.34;5070041;28;20049;-63
2021/01/22 06:30:39;;;;;;;24.90;13.98;;;;;;;1.79;100.00;98775.53;5070348;28;20413;-63
2021/01/22 06:33:06;;;;;;;24.48;13.02;;;;;;;1.79;100.00;98766.75;5069708;28;20048;-63
2021/01/22 06:35:33;;;;;;;33.00;14.60;;;;;;;1.79;100.00;98783.50;5070200;28;20094;-63
2021/01/22 06:38:01;;;;;;;32.53;16.05;;;;;;;1.74;100.00;98783.06;5067917;28;20045;-63
2021/01/22 06:40:27;;;;;;;46.38;17.23;;;;;;;1.77;100.00;98774.84;5057686;28;20060;-63
2021/01/22 06:42:54;;;;;;;30.30;16.23;;;;;;;1.73;100.00;98778.72;5065294;28;20055;-63
2021/01/22 06:45:22;;;;;;;30.42;15.68;;;;;;;1.68;100.00;98781.75;5066574;28;20048;-63
2021/01/22 06:48:02;;;;;;;42.80;18.85;;;;;;;1.67;100.00;98781.91;5069337;28;20048;-63
2021/01/22 06:50:29;;;;;;;31.33;14.98;;;;;;;1.62;100.00;98784.09;5069526;28;20075;-62
2021/01/22 06:53:10;;;;;;;41.90;18.13;;;;;;;1.66;100.00;98778.38;5070276;28;20036;-63
2021/01/22 06:56:08;;;;;;;41.80;18.27;;;;;;;1.65;100.00;98789.97;5069189;28;20091;-63
2021/01/22 06:58:34;;;;;;;40.55;17.73;;;;;;;1.62;100.00;98789.38;5069567;28;20158;-63
2021/01/22 07:01:01;;;;;;;41.33;18.65;;;;;;;1.60;100.00;98800.13;5070678;28;20047;-63
2021/01/22 07:03:47;;;;;;;41.80;19.52;;;;;;;1.61;100.00;98804.47;5069010;28;20041;-63
2021/01/22 07:06:54;;;;;;;41.50;19.75;;;;;;;1.64;100.00;98812.16;5069637;28;20059;-63
2021/01/22 07:09:22;;;;;;;44.83;20.33;;;;;;;1.71;100.00;98821.28;5065924;28;20057;-62
2021/01/22 07:11:56;;;;;;;39.70;19.50;;;;;;;1.67;100.00;98822.50;5069234;28;20045;-61
2021/01/22 07:14:33;;;;;;;41.85;22.23;;;;;;;1.71;100.00;98831.88;5066690;28;20052;-62
2021/01/22 07:17:02;;;;;;;45.63;21.13;;;;;;;1.70;100.00;98837.31;5070236;28;20083;-62
2021/01/22 07:19:28;;;;;;;40.63;20.00;;;;;;;1.84;100.00;98846.75;5069620;28;20040;-62
2021/01/22 07:21:54;;;;;;;38.63;21.05;;;;;;;1.81;100.00;98854.97;5069837;28;20105;-62
2021/01/22 07:24:22;;;;;;;47.50;22.08;;;;;;;1.74;100.00;98855.50;5033502;22;20056;-62
2021/01/22 07:26:50;;;;;;;46.17;23.15;;;;;;;1.75;100.00;98859.84;5029577;28;20057;-62
2021/01/22 07:29:19;;;;;;;48.80;23.42;;;;;;;1.81;100.00;98865.59;5039872;28;20048;-62
2021/01/22 07:32:06;;;;;;;44.78;25.58;;;;;;;1.87;100.00;98865.91;5049507;28;20494;-62
2021/01/22 07:34:49;;;;;;;46.45;22.92;;;;;;;1.87;100.00;98868.56;5068348;28;20123;-62
2021/01/22 07:37:18;;;;;;;46.30;24.73;;;;;;;1.93;100.00;98869.88;5067150;28;20409;-62
2021/01/22 07:39:46;;;;;;;46.55;22.50;;;;;;;1.97;100.00;98881.88;5068009;28;20049;-62
2021/01/22 07:42:13;;;;;;;46.03;23.55;;;;;;;1.95;100.00;98883.84;5067790;28;20045;-63
2021/01/22 07:44:40;;;;;;;39.20;22.30;;;;;;;1.94;100.00;98876.84;5067524;28;20382;-63
2021/01/22 07:47:08;;;;;;;40.55;22.23;;;;;;;1.93;100.00;98869.88;5069569;28;20056;-62
2021/01/22 07:49:34;;;;;;;40.78;22.92;;;;;;;1.90;100.00;98880.75;5069146;28;20056;-63
2021/01/22 07:52:01;;;;;;;48.30;24.17;;;;;;;1.89;100.00;98876.41;5067097;28;20060;-62
2021/01/22 07:54:27;;;;;;;41.75;23.52;;;;;;;1.94;100.00;98876.84;5065068;28;21489;-62
2021/01/22 07:56:54;;;;;;;42.58;21.50;;;;;;;1.89;100.00;98879.88;5066403;28;20181;-62
2021/01/22 07:59:20;;;;;;;38.80;20.05;;;;;;;1.96;100.00;98890.84;5063363;28;20543;-63
2021/01/22 08:01:46;;;;;;;48.20;23.50;;;;;;;1.97;100.00;98886.34;5063915;28;20052;-62
2021/01/22 08:04:25;;;;;;;44.85;21.63;;;;;;;1.90;100.00;98886.88;5066794;28;20052;-63
2021/01/22 08:06:51;;;;;;;38.08;20.85;;;;;;;1.90;100.00;98891.34;5065146;28;20044;-63
2021/01/22 08:09:18;;;;;;;40.97;21.70;;;;;;;1.93;100.00;98886.63;5064656;28;20060;-62
2021/01/22 08:11:44;;;;;;;40.00;19.27;;;;;;;1.93;100.00;98889.28;5066122;28;22018;-63
2021/01/22 08:14:12;;;;;;;38.22;19.48;;;;;;;1.90;100.00;98894.00;5064843;28;20049;-61
2021/01/22 08:16:38;;;;;;;40.90;20.48;;;;;;;1.92;100.00;98886.75;5068972;28;20516;-62
2021/01/22 08:19:05;;;;;;;36.20;18.67;;;;;;;1.90;100.00;98892.19;5067122;28;20407;-62
2021/01/22 08:21:32;;;;;;;42.03;19.63;;;;;;;1.98;100.00;98898.66;5066806;28;20052;-62
2021/01/22 08:23:58;;;;;;;39.25;18.08;;;;;;;2.06;100.00;98912.97;5066206;28;20056;-62
2021/01/22 08:26:26;;;;;;;35.33;17.25;;;;;;;2.06;100.00;98912.97;5063139;28;20615;-62
2021/01/22 08:28:54;;;;;;;33.55;16.30;;;;;;;2.03;100.00;98913.22;5038462;28;20614;-63
2021/01/22 08:31:22;;;;;;;37.42;18.42;;;;;;;2.05;99.91;98927.19;5036939;28;20486;-63
2021/01/22 08:33:48;;;;;;;36.80;16.05;;;;;;;2.07;99.93;98919.94;4939098;28;20139;-63
2021/01/22 08:36:14;;;;;;;38.05;18.35;;;;;;;2.14;99.94;98924.75;4938891;28;20133;-62
2021/01/22 08:38:40;;;;;;;28.70;15.63;;;;;;;2.12;100.00;98918.72;4918903;28;20479;-61
2021/01/22 08:41:07;;;;;;;29.95;15.77;;;;;;;2.15;100.00;98931.72;4915906;28;20195;-62
2021/01/22 08:43:48;;;;;;;35.63;15.48;;;;;;;2.15;100.00;98937.03;4918367;28;20617;-63
2021/01/22 08:46:14;;;;;;;33.00;15.50;;;;;;;2.15;100.00;98943.19;4938418;28;20132;-62
2021/01/22 08:48:41;;;;;;;30.00;14.90;;;;;;;2.13;99.67;98933.66;4931679;28;20517;-62
2021/01/22 08:51:07;;;;;;;30.48;14.60;;;;;;;2.14;99.53;98951.28;4921251;28;21588;-63
2021/01/22 08:53:33;;;;;;;30.42;14.88;;;;;;;2.15;99.98;98947.63;5009647;28;20060;-62
2021/01/22 08:56:09;;;;;;;27.05;13.77;;;;;;;2.16;100.00;98954.63;5065251;28;20036;-62
2021/01/22 08:58:35;;;;;;;30.08;14.57;;;;;;;2.26;99.82;98955.53;5043694;28;20107;-62
2021/01/22 09:01:01;;;;;;;34.15;14.35;;;;;;;2.23;99.54;98961.13;5044348;28;20045;-63
2021/01/22 09:03:27;;;;;;;25.52;13.50;;;;;;;2.21;100.00;98961.25;5068579;28;20098;-62
2021/01/22 09:05:55;;;;;;;30.45;14.30;;;;;;;2.21;99.84;98960.38;5064502;28;20063;-62
2021/01/22 09:08:23;;;;;;;29.50;13.20;;;;;;;2.29;99.50;98968.56;5065240;28;20052;-62
2021/01/22 09:10:50;;;;;;;25.88;13.68;;;;;;;2.29;100.00;98979.16;5059074;28;20504;-62
2021/01/22 09:13:18;;;;;;;29.67;13.38;;;;;;;2.35;99.40;98980.47;5067757;28;20100;-62
2021/01/22 09:15:45;;;;;;;32.47;14.10;;;;;;;2.35;100.00;98980.47;5062205;28;20053;-62
2021/01/22 09:18:15;;;;;;;28.27;14.75;;;;;;;2.32;99.81;98992.19;5067748;28;20106;-63
2021/01/22 09:20:43;;;;;;;25.40;14.50;;;;;;;2.35;99.86;98991.09;5068748;28;20084;-62
2021/01/22 09:23:09;;;;;;;29.48;14.60;;;;;;;2.37;100.00;98995.31;5066468;28;20130;-62
2021/01/22 09:25:36;;;;;;;25.38;13.20;;;;;;;2.36;99.33;99003.41;5070105;28;20053;-62
2021/01/22 09:28:02;;;;;;;26.35;13.23;;;;;;;2.37;99.57;99013.88;5069379;28;20097;-63
2021/01/22 09:30:28;;;;;;;36.60;14.40;;;;;;;2.37;99.04;99005.06;5070500;28;20048;-62
2021/01/22 09:32:55;;;;;;;28.52;12.88;;;;;;;2.38;99.69;99015.56;5069965;28;20044;-62
2021/01/22 09:35:23;;;;;;;34.53;13.18;;;;;;;2.41;99.67;99025.91;5066332;28;20061;-64
2021/01/22 09:37:50;;;;;;;27.17;12.25;;;;;;;2.51;99.79;99017.19;5068757;28;20059;-62
2021/01/22 09:40:18;;;;;;;24.05;13.43;;;;;;;2.49;99.65;99032.41;5068409;28;20061;-62
2021/01/22 09:42:44;;;;;;;27.67;12.10;;;;;;;2.49;99.04;99035.91;5070337;28;20089;-63
2021/01/22 09:45:12;;;;;;;26.25;12.65;;;;;;;2.51;99.23;99043.75;5068386;28;20451;-62
2021/01/22 09:47:39;;;;;;;32.50;14.25;;;;;;;2.54;99.62;99046.13;5071356;28;20408;-63
2021/01/22 09:50:07;;;;;;;29.63;13.30;;;;;;;2.59;99.27;99043.91;5070205;28;20643;-62
2021/01/22 09:52:36;;;;;;;28.90;12.48;;;;;;;2.63;99.55;99050.66;5067102;28;20049;-62
2021/01/22 09:55:02;;;;;;;22.20;11.80;;;;;;;2.65;99.07;99062.03;5068100;28;20041;-62
2021/01/22 09:57:29;;;;;;;26.67;12.35;;;;;;;2.74;99.41;99057.72;5060825;28;20056;-62
2021/01/22 09:59:55;;;;;;;28.67;12.02;;;;;;;2.87;99.08;99049.53;5066252;28;20044;-62
2021/01/22 10:02:21;;;;;;;18.58;10.27;;;;;;;2.94;99.04;99056.84;5065701;28;22695;-62
2021/01/22 10:04:47;;;;;;;22.50;9.00;;;;;;;3.00;98.86;99066.13;5063035;28;20482;-62
2021/01/22 10:07:13;;;;;;;21.48;9.60;;;;;;;3.04;98.44;99064.06;5068578;28;20105;-62
2021/01/22 10:09:39;;;;;;;21.67;8.73;;;;;;;3.12;98.34;99069.53;5067886;28;20052;-62
2021/01/22 10:12:08;;;;;;;23.88;10.02;;;;;;;3.17;98.32;99067.34;5066642;28;20106;-63
2021/01/22 10:14:34;;;;;;;20.35;7.55;;;;;;;3.18;97.65;99073.47;5067292;28;20049;-62
2021/01/22 10:17:00;;;;;;;18.35;8.00;;;;;;;3.28;97.68;99077.03;5069657;28;20559;-61
2021/01/22 10:19:26;;;;;;;16.98;7.53;;;;;;;3.32;97.39;99087.25;5068362;28;20132;-62
2021/01/22 10:21:52;;;;;;;15.73;7.80;;;;;;;3.41;97.49;99085.63;5068627;28;20052;-61
2021/01/22 10:24:18;;;;;;;16.42;7.72;;;;;;;3.41;97.21;99090.94;5066948;28;20071;-62
2021/01/22 10:26:45;;;;;;;19.33;7.10;;;;;;;3.43;97.28;99091.66;5067464;28;20093;-62
2021/01/22 10:29:11;;;;;;;19.58;8.52;;;;;;;3.49;96.60;99092.94;5065161;28;20048;-62
2021/01/22 10:31:38;;;;;;;14.88;7.15;;;;;;;3.61;96.15;99096.34;5061838;28;20063;-62
2021/01/22 10:37:07;;;;;;;17.30;7.57;;;;;;;3.78;95.91;99087.69;5042631;22;20486;-61
2021/01/22 10:39:32;;;;;;;19.83;7.85;;;;;;;3.78;95.52;99086.84;5029698;28;20045;-62
2021/01/22 10:41:58;;;;;;;19.80;7.43;;;;;;;3.82;95.50;99082.94;5038492;28;20068;-62
2021/01/22 10:44:24;;;;;;;18.95;7.93;;;;;;;3.93;95.45;99090.81;5036270;28;20419;-61
2021/01/22 10:46:51;;;;;;;19.17;6.72;;;;;;;4.00;94.88;99101.75;5033778;28;20127;-63
2021/01/22 10:49:17;;;;;;;18.10;6.25;;;;;;;4.09;94.36;99089.44;5033904;28;20332;-62
2021/01/22 10:51:43;;;;;;;19.58;6.47;;;;;;;4.13;94.10;99099.66;5038407;28;20097;-62
2021/01/22 10:54:10;;;;;;;15.02;6.25;;;;;;;4.24;93.92;99101.38;5040133;28;20061;-62
2021/01/22 10:56:36;;;;;;;13.32;5.75;;;;;;;4.23;93.57;99106.84;5037619;28;20061;-62
2021/01/22 10:59:02;;;;;;;14.85;6.32;;;;;;;4.32;93.69;99108.66;5038529;28;20111;-62
2021/01/22 11:01:28;;;;;;;16.65;5.82;;;;;;;4.37;93.31;99104.63;5039799;28;20045;-63
2021/01/22 11:03:55;;;;;;;14.48;5.97;;;;;;;4.37;93.18;99104.63;5038473;28;20538;-62
2021/01/22 11:06:20;;;;;;;17.38;6.45;;;;;;;4.41;93.22;99099.00;5035004;28;20049;-62
2021/01/22 11:08:46;;;;;;;15.23;5.78;;;;;;;4.53;93.36;99114.72;5036160;28;21283;-62
2021/01/22 11:11:12;;;;;;;13.88;5.45;;;;;;;4.65;93.30;99117.22;5037138;28;20072;-62
2021/01/22 11:13:38;;;;;;;15.38;5.10;;;;;;;4.74;92.21;99116.34;5034381;28;20045;-64
2021/01/22 11:16:04;;;;;;;16.80;4.78;;;;;;;4.75;92.59;99118.03;5020508;28;20041;-62
2021/01/22 11:18:30;;;;;;;9.98;4.45;;;;;;;4.82;92.43;99123.66;5037100;28;20067;-62
2021/01/22 11:20:57;;;;;;;12.52;4.40;;;;;;;5.00;91.26;99137.09;5038298;28;20068;-62
2021/01/22 11:23:23;;;;;;;17.95;4.75;;;;;;;4.92;91.03;99129.81;4941069;28;20152;-62
2021/01/22 11:25:50;;;;;;;13.05;4.57;;;;;;;4.77;90.70;99125.91;4923738;28;20748;-63
2021/01/22 11:28:16;;;;;;;14.15;4.72;;;;;;;4.79;90.64;99126.63;4920532;28;20057;-62
2021/01/22 11:30:42;;;;;;;14.02;4.80;;;;;;;4.81;91.24;99125.47;4913134;28;20053;-62
2021/01/22 11:33:08;;;;;;;10.57;3.92;;;;;;;4.96;90.88;99130.38;4914897;28;20144;-63
2021/01/22 11:35:35;;;;;;;17.58;4.63;;;;;;;5.03;90.49;99136.81;4937338;28;20056;-63
2021/01/22 11:38:02;;;;;;;12.55;4.18;;;;;;;5.17;90.07;99144.38;4945704;28;20449;-63
2021/01/22 11:40:28;;;;;;;12.88;3.95;;;;;;;5.11;89.99;99144.97;4943432;28;20169;-61
2021/01/22 11:42:54;;;;;;;12.25;3.90;;;;;;;5.11;89.16;99147.63;4943329;28;20095;-61